createdAt,value
2022-08-25T00:00:31.823Z,1018.49
2022-08-25T00:01:32.315Z,1018.50
2022-08-25T00:02:31.824Z,1018.49
2022-08-25T00:03:36.002Z,1018.46
2022-08-25T00:04:31.746Z,1018.50
2022-08-25T00:05:33.335Z,1018.49
2022-08-25T00:06:31.734Z,1018.51
2022-08-25T00:07:31.719Z,1018.53
2022-08-25T00:08:31.686Z,1018.48
2022-08-25T00:09:31.701Z,1018.49
2022-08-25T00:10:31.657Z,1018.49
2022-08-25T00:11:31.688Z,1018.45
2022-08-25T00:12:31.633Z,1018.47
2022-08-25T00:13:31.645Z,1018.48
2022-08-25T00:14:31.613Z,1018.47
2022-08-25T00:15:31.679Z,1018.49
2022-08-25T00:16:31.643Z,1018.51
2022-08-25T00:17:31.602Z,1018.48
2022-08-25T00:18:31.559Z,1018.49
2022-08-25T00:19:31.561Z,1018.51
2022-08-25T00:20:31.530Z,1018.49
2022-08-25T00:21:31.531Z,1018.54
2022-08-25T00:22:31.541Z,1018.55
2022-08-25T00:23:31.504Z,1018.55
2022-08-25T00:24:31.481Z,1018.51
2022-08-25T00:25:31.486Z,1018.60
2022-08-25T00:26:31.449Z,1018.55
2022-08-25T00:27:31.496Z,1018.57
2022-08-25T00:28:31.430Z,1018.53
2022-08-25T00:29:31.438Z,1018.54
2022-08-25T00:30:31.418Z,1018.57
2022-08-25T00:31:38.231Z,1018.56
2022-08-25T00:32:31.402Z,1018.57
2022-08-25T00:33:31.397Z,1018.55
2022-08-25T00:34:31.357Z,1018.52
2022-08-25T00:35:31.353Z,1018.52
2022-08-25T00:36:31.319Z,1018.52
2022-08-25T00:37:31.324Z,1018.52
2022-08-25T00:38:31.323Z,1018.49
2022-08-25T00:39:31.300Z,1018.50
2022-08-25T00:40:31.348Z,1018.49
2022-08-25T00:41:31.297Z,1018.50
2022-08-25T00:42:31.254Z,1018.50
2022-08-25T00:43:31.253Z,1018.51
2022-08-25T00:44:31.243Z,1018.50
2022-08-25T00:45:31.215Z,1018.49
2022-08-25T00:46:31.288Z,1018.49
2022-08-25T00:47:31.199Z,1018.52
2022-08-25T00:48:31.168Z,1018.55
2022-08-25T00:49:31.191Z,1018.55
2022-08-25T00:50:31.135Z,1018.60
2022-08-25T00:51:31.148Z,1018.64
2022-08-25T00:52:31.127Z,1018.61
2022-08-25T00:53:31.116Z,1018.66
2022-08-25T00:54:31.085Z,1018.65
2022-08-25T00:55:31.117Z,1018.64
2022-08-25T00:56:31.062Z,1018.58
2022-08-25T00:57:34.580Z,1018.61
2022-08-25T00:58:31.033Z,1018.59
2022-08-25T00:59:31.032Z,1018.58
2022-08-25T01:00:31.042Z,1018.59
2022-08-25T01:01:31.043Z,1018.63
2022-08-25T01:02:31.053Z,1018.62
2022-08-25T01:03:33.129Z,1018.63
2022-08-25T01:04:30.957Z,1018.61
2022-08-25T01:05:30.970Z,1018.65
2022-08-25T01:06:30.972Z,1018.63
2022-08-25T01:07:30.961Z,1018.63
2022-08-25T01:08:30.902Z,1018.70
2022-08-25T01:09:30.904Z,1018.66
2022-08-25T01:10:30.884Z,1018.68
2022-08-25T01:11:30.919Z,1018.67
2022-08-25T01:12:30.852Z,1018.65
2022-08-25T01:13:30.854Z,1018.63
2022-08-25T01:14:30.822Z,1018.63
2022-08-25T01:15:30.872Z,1018.66
2022-08-25T01:16:30.804Z,1018.66
2022-08-25T01:17:30.840Z,1018.63
2022-08-25T01:18:30.772Z,1018.65
2022-08-25T01:19:30.813Z,1018.68
2022-08-25T01:20:30.764Z,1018.61
2022-08-25T01:21:30.749Z,1018.67
2022-08-25T01:22:30.767Z,1018.66
2022-08-25T01:23:30.717Z,1018.68
2022-08-25T01:24:30.710Z,1018.64
2022-08-25T01:25:30.704Z,1018.66
2022-08-25T01:26:31.108Z,1018.65
2022-08-25T01:27:30.683Z,1018.68
2022-08-25T01:28:30.669Z,1018.65
2022-08-25T01:29:30.653Z,1018.72
2022-08-25T01:30:30.627Z,1018.74
2022-08-25T01:31:30.631Z,1018.74
2022-08-25T01:32:30.585Z,1018.72
2022-08-25T01:33:30.636Z,1018.73
2022-08-25T01:34:30.586Z,1018.78
2022-08-25T01:35:30.567Z,1018.81
2022-08-25T01:36:30.539Z,1018.77
2022-08-25T01:37:30.533Z,1018.75
2022-08-25T01:38:30.521Z,1018.77
2022-08-25T01:39:30.539Z,1018.79
2022-08-25T01:40:30.519Z,1018.77
2022-08-25T01:41:30.489Z,1018.79
2022-08-25T01:42:30.478Z,1018.75
2022-08-25T01:43:30.447Z,1018.73
2022-08-25T01:44:30.478Z,1018.70
2022-08-25T01:45:30.427Z,1018.71
2022-08-25T01:46:30.464Z,1018.70
2022-08-25T01:47:30.392Z,1018.75
2022-08-25T01:48:30.396Z,1018.72
2022-08-25T01:49:30.370Z,1018.71
2022-08-25T01:50:30.398Z,1018.74
2022-08-25T01:51:30.346Z,1018.75
2022-08-25T01:52:30.345Z,1018.77
2022-08-25T01:53:30.326Z,1018.74
2022-08-25T01:54:30.327Z,1018.75
2022-08-25T01:55:30.354Z,1018.74
2022-08-25T01:56:30.293Z,1018.74
2022-08-25T01:57:30.264Z,1018.70
2022-08-25T01:58:30.276Z,1018.74
2022-08-25T01:59:30.235Z,1018.69
2022-08-25T02:00:30.261Z,1018.73
2022-08-25T02:01:30.405Z,1018.65
2022-08-25T02:02:31.658Z,1018.70
2022-08-25T02:03:30.187Z,1018.67
2022-08-25T02:04:30.196Z,1018.63
2022-08-25T02:05:30.158Z,1018.65
2022-08-25T02:06:30.268Z,1018.62
2022-08-25T02:07:30.136Z,1018.61
2022-08-25T02:08:30.136Z,1018.61
2022-08-25T02:09:30.125Z,1018.60
2022-08-25T02:10:30.106Z,1018.63
2022-08-25T02:11:30.080Z,1018.67
2022-08-25T02:12:30.104Z,1018.57
2022-08-25T02:13:31.603Z,1018.62
2022-08-25T02:14:30.056Z,1018.59
2022-08-25T02:15:30.031Z,1018.58
2022-08-25T02:16:30.087Z,1018.58
2022-08-25T02:17:30.041Z,1018.60
2022-08-25T02:18:30.006Z,1018.54
2022-08-25T02:19:29.992Z,1018.56
2022-08-25T02:20:29.978Z,1018.56
2022-08-25T02:21:29.961Z,1018.54
2022-08-25T02:22:29.961Z,1018.58
2022-08-25T02:23:29.957Z,1018.60
2022-08-25T02:24:29.922Z,1018.57
2022-08-25T02:25:29.915Z,1018.57
2022-08-25T02:26:29.900Z,1018.56
2022-08-25T02:27:29.891Z,1018.54
2022-08-25T02:28:29.922Z,1018.50
2022-08-25T02:29:29.841Z,1018.52
2022-08-25T02:30:29.889Z,1018.49
2022-08-25T02:31:29.817Z,1018.50
2022-08-25T02:32:29.823Z,1018.49
2022-08-25T02:33:29.787Z,1018.45
2022-08-25T02:34:29.831Z,1018.45
2022-08-25T02:35:29.764Z,1018.45
2022-08-25T02:36:29.767Z,1018.42
2022-08-25T02:37:29.740Z,1018.47
2022-08-25T02:38:29.750Z,1018.47
2022-08-25T02:39:29.759Z,1018.43
2022-08-25T02:40:29.789Z,1018.45
2022-08-25T02:41:31.306Z,1018.45
2022-08-25T02:42:29.695Z,1018.42
2022-08-25T02:43:29.663Z,1018.44
2022-08-25T02:44:29.669Z,1018.41
2022-08-25T02:45:29.669Z,1018.44
2022-08-25T02:46:29.709Z,1018.44
2022-08-25T02:47:29.607Z,1018.37
2022-08-25T02:48:29.651Z,1018.41
2022-08-25T02:49:29.583Z,1018.44
2022-08-25T02:50:29.630Z,1018.44
2022-08-25T02:51:29.570Z,1018.42
2022-08-25T02:52:29.558Z,1018.46
2022-08-25T02:53:29.537Z,1018.47
2022-08-25T02:54:29.542Z,1018.47
2022-08-25T02:55:29.511Z,1018.53
2022-08-25T02:56:29.533Z,1018.51
2022-08-25T02:57:29.488Z,1018.54
2022-08-25T02:58:29.494Z,1018.57
2022-08-25T02:59:29.450Z,1018.53
2022-08-25T03:00:29.459Z,1018.53
2022-08-25T03:01:29.543Z,1018.53
2022-08-25T03:02:29.444Z,1018.50
2022-08-25T03:03:29.414Z,1018.48
2022-08-25T03:04:29.505Z,1018.45
2022-08-25T03:05:29.379Z,1018.46
2022-08-25T03:06:29.379Z,1018.44
2022-08-25T03:07:29.388Z,1018.38
2022-08-25T03:08:29.355Z,1018.34
2022-08-25T03:09:29.323Z,1018.36
2022-08-25T03:10:29.327Z,1018.36
2022-08-25T03:11:29.319Z,1018.33
2022-08-25T03:12:29.335Z,1018.33
2022-08-25T03:13:29.290Z,1018.35
2022-08-25T03:14:29.273Z,1018.33
2022-08-25T03:15:30.589Z,1018.37
2022-08-25T03:16:29.267Z,1018.38
2022-08-25T03:17:29.222Z,1018.34
2022-08-25T03:18:29.246Z,1018.32
2022-08-25T03:19:29.201Z,1018.39
2022-08-25T03:20:29.216Z,1018.32
2022-08-25T03:21:29.169Z,1018.31
2022-08-25T03:22:29.171Z,1018.35
2022-08-25T03:23:29.187Z,1018.35
2022-08-25T03:24:29.150Z,1018.36
2022-08-25T03:25:29.133Z,1018.35
2022-08-25T03:26:29.121Z,1018.38
2022-08-25T03:27:29.096Z,1018.39
2022-08-25T03:28:30.163Z,1018.39
2022-08-25T03:29:29.098Z,1018.41
2022-08-25T03:30:29.067Z,1018.42
2022-08-25T03:31:29.076Z,1018.38
2022-08-25T03:32:29.044Z,1018.40
2022-08-25T03:33:29.015Z,1018.39
2022-08-25T03:34:29.049Z,1018.37
2022-08-25T03:35:28.990Z,1018.36
2022-08-25T03:36:28.987Z,1018.42
2022-08-25T03:37:28.966Z,1018.41
2022-08-25T03:38:28.960Z,1018.38
2022-08-25T03:39:28.936Z,1018.38
2022-08-25T03:40:29.020Z,1018.37
2022-08-25T03:41:29.218Z,1018.35
2022-08-25T03:42:28.912Z,1018.35
2022-08-25T03:43:28.894Z,1018.36
2022-08-25T03:44:28.887Z,1018.36
2022-08-25T03:45:28.989Z,1018.41
2022-08-25T03:46:28.866Z,1018.40
2022-08-25T03:47:28.828Z,1018.49
2022-08-25T03:48:28.829Z,1018.47
2022-08-25T03:49:28.809Z,1018.44
2022-08-25T03:50:28.802Z,1018.43
2022-08-25T03:51:28.801Z,1018.40
2022-08-25T03:52:28.805Z,1018.44
2022-08-25T03:53:28.752Z,1018.41
2022-08-25T03:54:28.759Z,1018.43
2022-08-25T03:55:28.760Z,1018.39
2022-08-25T03:56:28.768Z,1018.38
2022-08-25T03:57:28.703Z,1018.39
2022-08-25T03:58:28.710Z,1018.37
2022-08-25T03:59:28.676Z,1018.31
2022-08-25T04:00:28.672Z,1018.30
2022-08-25T04:01:28.814Z,1018.27
2022-08-25T04:02:28.660Z,1018.28
2022-08-25T04:03:28.584Z,1018.25
2022-08-25T04:04:28.566Z,1018.22
2022-08-25T04:05:28.539Z,1018.23
2022-08-25T04:06:28.549Z,1018.26
2022-08-25T04:07:28.572Z,1018.27
2022-08-25T04:08:28.518Z,1018.23
2022-08-25T04:09:28.487Z,1018.26
2022-08-25T04:10:28.488Z,1018.29
2022-08-25T04:11:28.468Z,1018.27
2022-08-25T04:12:28.458Z,1018.29
2022-08-25T04:13:28.489Z,1018.31
2022-08-25T04:14:28.437Z,1018.33
2022-08-25T04:15:30.084Z,1018.35
2022-08-25T04:16:28.460Z,1018.33
2022-08-25T04:17:28.385Z,1018.38
2022-08-25T04:18:28.418Z,1018.30
2022-08-25T04:19:28.359Z,1018.32
2022-08-25T04:20:28.358Z,1018.27
2022-08-25T04:21:28.333Z,1018.27
2022-08-25T04:22:29.856Z,1018.27
2022-08-25T04:23:28.307Z,1018.26
2022-08-25T04:24:28.343Z,1018.23
2022-08-25T04:25:28.289Z,1018.28
2022-08-25T04:26:28.308Z,1018.25
2022-08-25T04:27:28.252Z,1018.27
2022-08-25T04:28:28.272Z,1018.26
2022-08-25T04:29:28.280Z,1018.24
2022-08-25T04:30:28.238Z,1018.24
2022-08-25T04:31:28.276Z,1018.25
2022-08-25T04:32:28.210Z,1018.20
2022-08-25T04:33:28.218Z,1018.22
2022-08-25T04:34:30.767Z,1018.23
2022-08-25T04:35:28.194Z,1018.22
2022-08-25T04:36:28.164Z,1018.25
2022-08-25T04:37:28.122Z,1018.27
2022-08-25T04:38:28.128Z,1018.27
2022-08-25T04:39:28.112Z,1018.25
2022-08-25T04:40:28.933Z,1018.24
2022-08-25T04:41:28.071Z,1018.29
2022-08-25T04:42:28.090Z,1018.25
2022-08-25T04:43:28.044Z,1018.21
2022-08-25T04:44:28.068Z,1018.19
2022-08-25T04:45:28.067Z,1018.21
2022-08-25T04:46:28.049Z,1018.21
2022-08-25T04:47:28.174Z,1018.22
2022-08-25T04:48:28.001Z,1018.19
2022-08-25T04:49:27.972Z,1018.19
2022-08-25T04:50:27.968Z,1018.17
2022-08-25T04:51:27.970Z,1018.18
2022-08-25T04:52:27.936Z,1018.17
2022-08-25T04:53:27.923Z,1018.19
2022-08-25T04:54:27.912Z,1018.11
2022-08-25T04:55:27.885Z,1018.09
2022-08-25T04:56:27.894Z,1018.14
2022-08-25T04:57:27.910Z,1018.10
2022-08-25T04:58:27.868Z,1018.09
2022-08-25T04:59:29.364Z,1018.05
2022-08-25T05:00:27.833Z,1018.04
2022-08-25T05:01:27.830Z,1018.03
2022-08-25T05:02:27.808Z,1018.03
2022-08-25T05:03:27.816Z,1018.05
2022-08-25T05:04:29.063Z,1018.04
2022-08-25T05:05:27.752Z,1018.06
2022-08-25T05:06:27.762Z,1018.06
2022-08-25T05:07:27.733Z,1018.06
2022-08-25T05:08:27.736Z,1018.06
2022-08-25T05:09:27.737Z,1018.06
2022-08-25T05:10:27.705Z,1018.06
2022-08-25T05:11:27.683Z,1018.04
2022-08-25T05:12:27.685Z,1018.01
2022-08-25T05:13:27.657Z,1017.98
2022-08-25T05:14:27.665Z,1018.00
2022-08-25T05:15:27.675Z,1018.02
2022-08-25T05:16:27.683Z,1017.93
2022-08-25T05:17:27.600Z,1017.92
2022-08-25T05:18:27.599Z,1017.92
2022-08-25T05:19:27.607Z,1017.89
2022-08-25T05:20:27.575Z,1017.94
2022-08-25T05:21:27.599Z,1017.91
2022-08-25T05:22:27.545Z,1017.85
2022-08-25T05:23:27.523Z,1017.86
2022-08-25T05:24:27.526Z,1017.89
2022-08-25T05:25:27.496Z,1017.86
2022-08-25T05:26:27.504Z,1017.89
2022-08-25T05:27:27.515Z,1017.86
2022-08-25T05:28:27.473Z,1017.88
2022-08-25T05:29:27.450Z,1017.85
2022-08-25T05:30:27.479Z,1017.88
2022-08-25T05:31:27.459Z,1017.87
2022-08-25T05:32:27.415Z,1017.91
2022-08-25T05:33:27.426Z,1017.85
2022-08-25T05:34:27.414Z,1017.84
2022-08-25T05:35:27.380Z,1017.87
2022-08-25T05:36:27.373Z,1017.84
2022-08-25T05:37:27.337Z,1017.86
2022-08-25T05:38:27.362Z,1017.84
2022-08-25T05:39:27.355Z,1017.80
2022-08-25T05:40:27.363Z,1017.78
2022-08-25T05:41:27.293Z,1017.77
2022-08-25T05:42:27.297Z,1017.80
2022-08-25T05:43:27.267Z,1017.79
2022-08-25T05:44:27.265Z,1017.76
2022-08-25T05:45:27.322Z,1017.73
2022-08-25T05:46:27.244Z,1017.76
2022-08-25T05:47:27.216Z,1017.76
2022-08-25T05:48:27.211Z,1017.76
2022-08-25T05:49:27.199Z,1017.76
2022-08-25T05:50:27.198Z,1017.74
2022-08-25T05:51:27.195Z,1017.73
2022-08-25T05:52:27.167Z,1017.72
2022-08-25T05:53:27.147Z,1017.69
2022-08-25T05:54:27.157Z,1017.66
2022-08-25T05:55:27.107Z,1017.65
2022-08-25T05:56:27.105Z,1017.66
2022-08-25T05:57:27.122Z,1017.63
2022-08-25T05:58:27.071Z,1017.61
2022-08-25T05:59:27.067Z,1017.63
2022-08-25T06:00:27.040Z,1017.60
2022-08-25T06:01:27.122Z,1017.54
2022-08-25T06:02:27.010Z,1017.56
2022-08-25T06:03:27.066Z,1017.57
2022-08-25T06:04:26.987Z,1017.50
2022-08-25T06:05:26.989Z,1017.59
2022-08-25T06:06:26.965Z,1017.58
2022-08-25T06:07:27.069Z,1017.62
2022-08-25T06:08:26.946Z,1017.67
2022-08-25T06:09:26.973Z,1017.64
2022-08-25T06:10:27.046Z,1017.66
2022-08-25T06:11:26.912Z,1017.67
2022-08-25T06:12:26.888Z,1017.66
2022-08-25T06:13:28.815Z,1017.71
2022-08-25T06:14:26.859Z,1017.66
2022-08-25T06:15:26.895Z,1017.67
2022-08-25T06:16:26.891Z,1017.64
2022-08-25T06:17:26.831Z,1017.67
2022-08-25T06:18:26.807Z,1017.65
2022-08-25T06:19:26.805Z,1017.66
2022-08-25T06:20:26.838Z,1017.66
2022-08-25T06:21:26.907Z,1017.66
2022-08-25T06:22:26.747Z,1017.69
2022-08-25T06:23:26.751Z,1017.69
2022-08-25T06:24:26.724Z,1017.73
2022-08-25T06:25:26.726Z,1017.74
2022-08-25T06:26:26.707Z,1017.72
2022-08-25T06:27:26.730Z,1017.75
2022-08-25T06:28:26.683Z,1017.74
2022-08-25T06:29:26.671Z,1017.76
2022-08-25T06:30:28.840Z,1017.78
2022-08-25T06:31:26.684Z,1017.78
2022-08-25T06:32:26.636Z,1017.75
2022-08-25T06:33:26.668Z,1017.72
2022-08-25T06:34:26.621Z,1017.73
2022-08-25T06:35:26.601Z,1017.73
2022-08-25T06:36:26.571Z,1017.71
2022-08-25T06:37:26.612Z,1017.66
2022-08-25T06:38:26.555Z,1017.69
2022-08-25T06:39:26.590Z,1017.68
2022-08-25T06:40:26.689Z,1017.68
2022-08-25T06:41:37.024Z,1017.69
2022-08-25T06:42:26.505Z,1017.69
2022-08-25T06:43:26.496Z,1017.72
2022-08-25T06:44:26.466Z,1017.71
2022-08-25T06:45:26.511Z,1017.66
2022-08-25T06:46:36.578Z,1017.64
2022-08-25T06:47:26.525Z,1017.66
2022-08-25T06:48:26.420Z,1017.71
2022-08-25T06:49:26.428Z,1017.74
2022-08-25T06:50:26.406Z,1017.72
2022-08-25T06:51:26.428Z,1017.74
2022-08-25T06:52:29.090Z,1017.78
2022-08-25T06:53:26.367Z,1017.78
2022-08-25T06:54:26.347Z,1017.75
2022-08-25T06:55:26.342Z,1017.80
2022-08-25T06:56:26.690Z,1017.81
2022-08-25T06:57:26.505Z,1017.80
2022-08-25T06:58:26.296Z,1017.77
2022-08-25T06:59:26.302Z,1017.74
2022-08-25T07:00:30.647Z,1017.75
2022-08-25T07:01:26.425Z,1017.73
2022-08-25T07:02:26.326Z,1017.71
2022-08-25T07:04:23.018Z,1017.74
2022-08-25T07:05:33.515Z,1017.72
2022-08-25T07:06:23.981Z,1017.72
2022-08-25T07:07:23.980Z,1017.73
2022-08-25T07:08:23.944Z,1017.76
2022-08-25T07:09:23.994Z,1017.75
2022-08-25T07:10:24.002Z,1017.80
2022-08-25T07:11:23.950Z,1017.81
2022-08-25T07:12:23.911Z,1017.75
2022-08-25T07:13:23.897Z,1017.75
2022-08-25T07:14:23.874Z,1017.78
2022-08-25T07:15:23.913Z,1017.77
2022-08-25T07:16:23.867Z,1017.78
2022-08-25T07:17:23.902Z,1017.82
2022-08-25T07:18:23.831Z,1017.75
2022-08-25T07:19:23.820Z,1017.79
2022-08-25T07:21:27.885Z,1017.76
2022-08-25T07:22:23.782Z,1017.76
2022-08-25T07:23:23.773Z,1017.74
2022-08-25T07:24:23.745Z,1017.82
2022-08-25T07:25:23.745Z,1017.78
2022-08-25T07:26:39.315Z,1017.78
2022-08-25T07:27:23.759Z,1017.78
2022-08-25T07:28:23.686Z,1017.78
2022-08-25T07:29:32.064Z,1017.77
2022-08-25T07:30:23.753Z,1017.78
2022-08-25T07:31:28.199Z,1017.73
2022-08-25T07:32:23.641Z,1017.73
2022-08-25T07:33:23.667Z,1017.75
2022-08-25T07:34:23.603Z,1017.71
2022-08-25T07:35:24.082Z,1017.77
2022-08-25T07:36:23.579Z,1017.78
2022-08-25T07:37:48.768Z,1017.76
2022-08-25T07:38:23.569Z,1017.79
2022-08-25T07:39:23.593Z,1017.80
2022-08-25T07:40:23.680Z,1017.82
2022-08-25T07:41:23.526Z,1017.85
2022-08-25T07:42:23.498Z,1017.85
2022-08-25T07:43:23.501Z,1017.84
2022-08-25T07:44:23.476Z,1017.84
2022-08-25T07:45:23.527Z,1017.76
2022-08-25T07:46:23.476Z,1017.75
2022-08-25T07:47:23.450Z,1017.77
2022-08-25T07:48:23.427Z,1017.78
2022-08-25T07:49:23.772Z,1017.72
2022-08-25T07:50:23.395Z,1017.78
2022-08-25T07:51:23.447Z,1017.82
2022-08-25T07:52:23.360Z,1017.79
2022-08-25T07:53:23.364Z,1017.83
2022-08-25T07:54:23.339Z,1017.88
2022-08-25T07:55:23.353Z,1017.85
2022-08-25T07:56:23.315Z,1017.87
2022-08-25T07:57:23.352Z,1017.79
2022-08-25T07:58:23.302Z,1017.83
2022-08-25T07:59:23.287Z,1017.79
2022-08-25T08:00:24.469Z,1017.76
2022-08-25T08:01:23.351Z,1017.79
2022-08-25T08:02:24.781Z,1017.75
2022-08-25T08:03:44.807Z,1017.80
2022-08-25T08:04:23.214Z,1017.76
2022-08-25T08:05:23.928Z,1017.76
2022-08-25T08:06:23.181Z,1017.79
2022-08-25T08:07:23.203Z,1017.82
2022-08-25T08:08:23.151Z,1017.83
2022-08-25T08:09:23.198Z,1017.83
2022-08-25T08:10:47.901Z,1017.81
2022-08-25T08:11:23.139Z,1017.79
2022-08-25T08:12:23.106Z,1017.79
2022-08-25T08:13:23.138Z,1017.77
2022-08-25T08:14:23.077Z,1017.71
2022-08-25T08:15:23.111Z,1017.73
2022-08-25T08:16:23.121Z,1017.68
2022-08-25T08:17:23.052Z,1017.67
2022-08-25T08:18:23.028Z,1017.66
2022-08-25T08:19:23.214Z,1017.67
2022-08-25T08:20:23.227Z,1017.57
2022-08-25T08:21:23.037Z,1017.62
2022-08-25T08:22:22.977Z,1017.63
2022-08-25T08:23:22.978Z,1017.63
2022-08-25T08:24:40.835Z,1017.60
2022-08-25T08:25:27.329Z,1017.60
2022-08-25T08:26:31.717Z,1017.61
2022-08-25T08:27:22.966Z,1017.61
2022-08-25T08:28:22.904Z,1017.59
2022-08-25T08:29:22.910Z,1017.58
2022-08-25T08:30:25.997Z,1017.57
2022-08-25T08:31:22.910Z,1017.57
2022-08-25T08:32:23.143Z,1017.57
2022-08-25T08:33:22.892Z,1017.55
2022-08-25T08:34:24.850Z,1017.58
2022-08-25T08:35:22.816Z,1017.51
2022-08-25T08:36:22.794Z,1017.54
2022-08-25T08:37:22.973Z,1017.49
2022-08-25T08:38:27.142Z,1017.53
2022-08-25T08:39:22.811Z,1017.49
2022-08-25T08:40:22.769Z,1017.53
2022-08-25T08:41:23.030Z,1017.52
2022-08-25T08:42:22.717Z,1017.51
2022-08-25T08:43:22.714Z,1017.53
2022-08-25T08:44:22.681Z,1017.49
2022-08-25T08:45:22.730Z,1017.50
2022-08-25T08:46:22.763Z,1017.48
2022-08-25T08:47:22.663Z,1017.51
2022-08-25T08:48:22.658Z,1017.51
2022-08-25T08:49:22.638Z,1017.51
2022-08-25T08:50:28.010Z,1017.49
2022-08-25T08:51:22.927Z,1017.48
2022-08-25T08:52:22.582Z,1017.49
2022-08-25T08:53:22.601Z,1017.46
2022-08-25T08:54:23.150Z,1017.54
2022-08-25T08:55:22.555Z,1017.53
2022-08-25T08:56:22.529Z,1017.55
2022-08-25T08:57:22.581Z,1017.55
2022-08-25T08:58:26.107Z,1017.54
2022-08-25T08:59:22.508Z,1017.54
2022-08-25T09:00:22.517Z,1017.57
2022-08-25T09:01:22.536Z,1017.60
2022-08-25T09:02:50.273Z,1017.53
2022-08-25T09:03:22.618Z,1017.55
2022-08-25T09:04:24.387Z,1017.52
2022-08-25T09:05:22.435Z,1017.59
2022-08-25T09:06:22.403Z,1017.55
2022-08-25T09:07:22.417Z,1017.53
2022-08-25T09:08:22.388Z,1017.49
2022-08-25T09:09:22.428Z,1017.55
2022-08-25T09:10:22.350Z,1017.54
2022-08-25T09:11:22.355Z,1017.54
2022-08-25T09:12:22.339Z,1017.55
2022-08-25T09:13:26.048Z,1017.53
2022-08-25T09:14:22.327Z,1017.52
2022-08-25T09:15:22.345Z,1017.51
2022-08-25T09:16:23.350Z,1017.50
2022-08-25T09:17:22.318Z,1017.45
2022-08-25T09:18:22.253Z,1017.50
2022-08-25T09:19:23.454Z,1017.53
2022-08-25T09:20:22.269Z,1017.54
2022-08-25T09:21:22.250Z,1017.55
2022-08-25T09:22:35.116Z,1017.51
2022-08-25T09:23:22.207Z,1017.51
2022-08-25T09:24:22.181Z,1017.52
2022-08-25T09:25:39.796Z,1017.53
2022-08-25T09:26:22.214Z,1017.52
2022-08-25T09:27:22.167Z,1017.51
2022-08-25T09:28:22.115Z,1017.47
2022-08-25T09:29:22.137Z,1017.40
2022-08-25T09:30:22.106Z,1017.47
2022-08-25T09:31:24.359Z,1017.45
2022-08-25T09:32:24.180Z,1017.37
2022-08-25T09:33:22.204Z,1017.42
2022-08-25T09:34:22.049Z,1017.32
2022-08-25T09:35:22.042Z,1017.43
2022-08-25T09:36:22.061Z,1017.44
2022-08-25T09:37:22.019Z,1017.39
2022-08-25T09:38:22.021Z,1017.43
2022-08-25T09:39:22.021Z,1017.43
2022-08-25T09:40:22.006Z,1017.44
2022-08-25T09:41:21.967Z,1017.46
2022-08-25T09:42:24.008Z,1017.38
2022-08-25T09:43:21.911Z,1017.42
2022-08-25T09:44:21.940Z,1017.37
2022-08-25T09:45:21.943Z,1017.38
2022-08-25T09:46:21.934Z,1017.35
2022-08-25T09:47:21.863Z,1017.32
2022-08-25T09:48:21.883Z,1017.31
2022-08-25T09:49:21.897Z,1017.39
2022-08-25T09:50:21.840Z,1017.34
2022-08-25T09:51:21.865Z,1017.34
2022-08-25T09:52:21.824Z,1017.37
2022-08-25T09:53:21.952Z,1017.31
2022-08-25T09:54:25.461Z,1017.36
2022-08-25T09:55:21.813Z,1017.36
2022-08-25T09:56:21.770Z,1017.30
2022-08-25T09:57:21.835Z,1017.30
2022-08-25T09:58:22.309Z,1017.34
2022-08-25T09:59:21.700Z,1017.28
2022-08-25T10:00:21.738Z,1017.26
2022-08-25T10:01:22.426Z,1017.25
2022-08-25T10:02:21.683Z,1017.25
2022-08-25T10:03:22.743Z,1017.22
2022-08-25T10:04:21.658Z,1017.21
2022-08-25T10:05:23.345Z,1017.25
2022-08-25T10:06:21.712Z,1017.17
2022-08-25T10:07:21.609Z,1017.16
2022-08-25T10:08:21.676Z,1017.17
2022-08-25T10:09:21.630Z,1017.19
2022-08-25T10:10:21.591Z,1017.18
2022-08-25T10:11:21.621Z,1017.19
2022-08-25T10:12:21.577Z,1017.16
2022-08-25T10:13:22.611Z,1017.14
2022-08-25T10:14:21.573Z,1017.13
2022-08-25T10:15:30.080Z,1017.13
2022-08-25T10:16:24.497Z,1017.12
2022-08-25T10:17:21.542Z,1017.10
2022-08-25T10:18:21.553Z,1017.10
2022-08-25T10:19:21.496Z,1017.11
2022-08-25T10:20:20.467Z,1017.01
2022-08-25T10:21:21.484Z,1017.07
2022-08-25T10:22:21.446Z,1017.04
2022-08-25T10:23:21.443Z,1017.06
2022-08-25T10:24:21.478Z,1017.05
2022-08-25T10:25:21.376Z,1016.93
2022-08-25T10:26:21.393Z,1016.95
2022-08-25T10:27:21.406Z,1016.95
2022-08-25T10:28:21.368Z,1016.91
2022-08-25T10:29:21.421Z,1017.00
2022-08-25T10:30:21.379Z,1016.99
2022-08-25T10:31:21.392Z,1016.95
2022-08-25T10:32:21.308Z,1016.92
2022-08-25T10:33:21.329Z,1016.92
2022-08-25T10:34:21.339Z,1016.92
2022-08-25T10:35:21.264Z,1016.92
2022-08-25T10:36:21.430Z,1016.83
2022-08-25T10:37:21.239Z,1016.79
2022-08-25T10:38:21.529Z,1016.76
2022-08-25T10:39:33.914Z,1016.79
2022-08-25T10:40:21.309Z,1016.75
2022-08-25T10:41:21.184Z,1016.77
2022-08-25T10:42:26.068Z,1016.79
2022-08-25T10:43:23.830Z,1016.72
2022-08-25T10:44:21.157Z,1016.78
2022-08-25T10:45:21.945Z,1016.71
2022-08-25T10:46:21.243Z,1016.71
2022-08-25T10:47:21.117Z,1016.65
2022-08-25T10:48:22.321Z,1016.66
2022-08-25T10:49:21.080Z,1016.73
2022-08-25T10:50:21.094Z,1016.70
2022-08-25T10:51:25.278Z,1016.73
2022-08-25T10:52:21.063Z,1016.69
2022-08-25T10:53:21.053Z,1016.64
2022-08-25T10:54:21.034Z,1016.66
2022-08-25T10:55:21.005Z,1016.66
2022-08-25T10:56:21.030Z,1016.59
2022-08-25T10:57:21.025Z,1016.57
2022-08-25T10:58:20.985Z,1016.56
2022-08-25T10:59:20.950Z,1016.50
2022-08-25T11:00:20.959Z,1016.51
2022-08-25T11:01:20.969Z,1016.51
2022-08-25T11:02:20.961Z,1016.52
2022-08-25T11:03:21.062Z,1016.51
2022-08-25T11:04:20.912Z,1016.58
2022-08-25T11:05:24.620Z,1016.52
2022-08-25T11:06:20.884Z,1016.49
2022-08-25T11:07:20.855Z,1016.51
2022-08-25T11:08:20.856Z,1016.47
2022-08-25T11:09:20.868Z,1016.46
2022-08-25T11:10:20.841Z,1016.43
2022-08-25T11:11:20.807Z,1016.40
2022-08-25T11:12:20.855Z,1016.40
2022-08-25T11:13:20.786Z,1016.41
2022-08-25T11:14:20.796Z,1016.40
2022-08-25T11:15:20.845Z,1016.40
2022-08-25T11:16:20.765Z,1016.37
2022-08-25T11:17:20.737Z,1016.28
2022-08-25T11:18:20.762Z,1016.32
2022-08-25T11:19:20.754Z,1016.26
2022-08-25T11:20:27.078Z,1016.29
2022-08-25T11:21:22.134Z,1016.26
2022-08-25T11:22:20.754Z,1016.27
2022-08-25T11:23:20.659Z,1016.25
2022-08-25T11:24:20.753Z,1016.30
2022-08-25T11:25:21.683Z,1016.30
2022-08-25T11:26:20.633Z,1016.30
2022-08-25T11:27:21.625Z,1016.29
2022-08-25T11:28:20.625Z,1016.26
2022-08-25T11:29:20.586Z,1016.29
2022-08-25T11:30:20.592Z,1016.32
2022-08-25T11:31:20.577Z,1016.27
2022-08-25T11:32:20.594Z,1016.27
2022-08-25T11:33:20.695Z,1016.31
2022-08-25T11:34:20.555Z,1016.30
2022-08-25T11:35:20.533Z,1016.28
2022-08-25T11:36:20.508Z,1016.21
2022-08-25T11:37:20.485Z,1016.18
2022-08-25T11:38:20.846Z,1016.19
2022-08-25T11:39:20.495Z,1016.14
2022-08-25T11:40:20.573Z,1016.14
2022-08-25T11:41:20.432Z,1016.16
2022-08-25T11:42:20.449Z,1016.15
2022-08-25T11:43:20.414Z,1016.11
2022-08-25T11:44:20.459Z,1016.05
2022-08-25T11:45:20.412Z,1016.05
2022-08-25T11:46:20.436Z,1016.07
2022-08-25T11:47:21.617Z,1016.03
2022-08-25T11:48:20.373Z,1016.05
2022-08-25T11:49:20.336Z,1016.08
2022-08-25T11:50:20.347Z,1015.99
2022-08-25T11:51:20.355Z,1015.99
2022-08-25T11:52:20.332Z,1016.06
2022-08-25T11:53:23.716Z,1015.90
2022-08-25T11:54:20.305Z,1016.02
2022-08-25T11:55:22.939Z,1016.05
2022-08-25T11:56:20.281Z,1015.96
2022-08-25T11:57:20.273Z,1015.95
2022-08-25T11:58:20.317Z,1016.03
2022-08-25T11:59:20.222Z,1016.01
2022-08-25T12:00:20.223Z,1016.04
2022-08-25T12:01:20.218Z,1015.95
2022-08-25T12:02:20.201Z,1015.98
2022-08-25T12:03:20.220Z,1016.02
2022-08-25T12:04:20.224Z,1016.07
2022-08-25T12:05:20.292Z,1016.05
2022-08-25T12:06:20.206Z,1015.98
2022-08-25T12:07:20.137Z,1016.02